sensor_id;sensor_type;location;lat;lon;timestamp;temperature;humidity
66594;DHT22;53450;42.584;23.366;2023-02-01T00:00:33;-1.01;76.34
66594;DHT22;53450;42.584;23.366;2023-02-01T00:03:00;-1.01;76.87
66594;DHT22;53450;42.584;23.366;2023-02-01T00:05:26;-1.03;76.92
66594;DHT22;53450;42.584;23.366;2023-02-01T00:07:51;-0.99;76.46
66594;DHT22;53450;42.584;23.366;2023-02-01T00:10:17;-0.98;76.21
66594;DHT22;53450;42.584;23.366;2023-02-01T00:12:43;-0.95;76.78
66594;DHT22;53450;42.584;23.366;2023-02-01T00:15:11;-0.99;76.59
66594;DHT22;53450;42.584;23.366;2023-02-01T00:17:36;-1.08;76.68
66594;DHT22;53450;42.584;23.366;2023-02-01T00:20:02;-1.09;77.18
66594;DHT22;53450;42.584;23.366;2023-02-01T00:22:28;-1.09;76.84
66594;DHT22;53450;42.584;23.366;2023-02-01T00:24:54;-1.12;76.89
66594;DHT22;53450;42.584;23.366;2023-02-01T00:27:19;-1.15;77.20
66594;DHT22;53450;42.584;23.366;2023-02-01T00:29:46;-1.16;76.56
66594;DHT22;53450;42.584;23.366;2023-02-01T00:32:12;-1.13;76.66
66594;DHT22;53450;42.584;23.366;2023-02-01T00:34:38;-1.13;76.11
66594;DHT22;53450;42.584;23.366;2023-02-01T00:37:04;-1.10;75.96
66594;DHT22;53450;42.584;23.366;2023-02-01T00:39:55;-1.16;75.86
66594;DHT22;53450;42.584;23.366;2023-02-01T00:42:21;-1.17;75.78
66594;DHT22;53450;42.584;23.366;2023-02-01T00:44:46;-1.22;75.46
66594;DHT22;53450;42.584;23.366;2023-02-01T00:47:12;-1.20;75.37
66594;DHT22;53450;42.584;23.366;2023-02-01T00:49:37;-1.28;75.48
66594;DHT22;53450;42.584;23.366;2023-02-01T00:52:03;-1.35;75.81
66594;DHT22;53450;42.584;23.366;2023-02-01T00:54:29;-1.40;75.70
66594;DHT22;53450;42.584;23.366;2023-02-01T00:56:56;-1.42;74.71
66594;DHT22;53450;42.584;23.366;2023-02-01T00:59:21;-1.49;74.20
66594;DHT22;53450;42.584;23.366;2023-02-01T01:01:47;-1.50;74.34
66594;DHT22;53450;42.584;23.366;2023-02-01T01:04:12;-1.57;74.31
66594;DHT22;53450;42.584;23.366;2023-02-01T01:06:38;-1.56;74.21
66594;DHT22;53450;42.584;23.366;2023-02-01T01:09:05;-1.54;74.64
66594;DHT22;53450;42.584;23.366;2023-02-01T01:11:33;-1.51;74.07
66594;DHT22;53450;42.584;23.366;2023-02-01T01:14:00;-1.49;73.70
66594;DHT22;53450;42.584;23.366;2023-02-01T01:16:50;-1.49;72.94
66594;DHT22;53450;42.584;23.366;2023-02-01T01:19:16;-1.47;72.70
66594;DHT22;53450;42.584;23.366;2023-02-01T01:21:41;-1.42;73.37
66594;DHT22;53450;42.584;23.366;2023-02-01T01:24:07;-1.36;73.79
66594;DHT22;53450;42.584;23.366;2023-02-01T01:26:33;-1.46;73.15
66594;DHT22;53450;42.584;23.366;2023-02-01T01:28:58;-1.50;73.38
66594;DHT22;53450;42.584;23.366;2023-02-01T01:31:24;-1.61;73.03
66594;DHT22;53450;42.584;23.366;2023-02-01T01:33:52;-1.64;72.95
66594;DHT22;53450;42.584;23.366;2023-02-01T01:36:18;-1.61;72.72
66594;DHT22;53450;42.584;23.366;2023-02-01T01:38:44;-1.64;72.59
66594;DHT22;53450;42.584;23.366;2023-02-01T01:41:14;-1.63;71.57
66594;DHT22;53450;42.584;23.366;2023-02-01T01:44:02;-1.51;72.32
66594;DHT22;53450;42.584;23.366;2023-02-01T01:46:36;-1.57;72.24
66594;DHT22;53450;42.584;23.366;2023-02-01T01:49:14;-1.63;72.39
66594;DHT22;53450;42.584;23.366;2023-02-01T01:51:49;-1.61;72.47
66594;DHT22;53450;42.584;23.366;2023-02-01T01:54:19;-1.64;72.44
66594;DHT22;53450;42.584;23.366;2023-02-01T01:56:50;-1.61;72.24
66594;DHT22;53450;42.584;23.366;2023-02-01T01:59:43;-1.60;72.22
66594;DHT22;53450;42.584;23.366;2023-02-01T02:02:12;-1.64;72.53
66594;DHT22;53450;42.584;23.366;2023-02-01T02:04:38;-1.67;72.16
66594;DHT22;53450;42.584;23.366;2023-02-01T02:07:08;-1.77;72.13
66594;DHT22;53450;42.584;23.366;2023-02-01T02:09:35;-1.81;71.89
66594;DHT22;53450;42.584;23.366;2023-02-01T02:12:00;-1.81;72.49
66594;DHT22;53450;42.584;23.366;2023-02-01T02:14:26;-1.87;72.26
66594;DHT22;53450;42.584;23.366;2023-02-01T02:17:00;-1.87;71.76
66594;DHT22;53450;42.584;23.366;2023-02-01T02:34:57;-1.71;66.96
66594;DHT22;53450;42.584;23.366;2023-02-01T02:43:45;-1.68;67.34
66594;DHT22;53450;42.584;23.366;2023-02-01T02:46:46;-1.71;65.88
66594;DHT22;53450;42.584;23.366;2023-02-01T02:49:36;-1.68;66.52
66594;DHT22;53450;42.584;23.366;2023-02-01T02:52:16;-1.61;65.55
66594;DHT22;53450;42.584;23.366;2023-02-01T02:55:26;-1.60;66.55
66594;DHT22;53450;42.584;23.366;2023-02-01T02:57:54;-1.56;66.00
66594;DHT22;53450;42.584;23.366;2023-02-01T03:00:41;-1.54;67.17
66594;DHT22;53450;42.584;23.366;2023-02-01T03:03:26;-1.51;67.32
66594;DHT22;53450;42.584;23.366;2023-02-01T03:06:13;-1.53;67.51
66594;DHT22;53450;42.584;23.366;2023-02-01T03:08:41;-1.46;68.20
66594;DHT22;53450;42.584;23.366;2023-02-01T03:11:13;-1.43;68.85
66594;DHT22;53450;42.584;23.366;2023-02-01T03:13:58;-1.38;69.07
66594;DHT22;53450;42.584;23.366;2023-02-01T03:19:06;-1.36;68.63
66594;DHT22;53450;42.584;23.366;2023-02-01T03:27:20;-1.30;68.85
66594;DHT22;53450;42.584;23.366;2023-02-01T03:30:25;-1.30;69.09
66594;DHT22;53450;42.584;23.366;2023-02-01T03:32:47;-1.23;69.19
66594;DHT22;53450;42.584;23.366;2023-02-01T03:35:33;-1.25;69.38
66594;DHT22;53450;42.584;23.366;2023-02-01T03:41:14;-1.19;69.58
66594;DHT22;53450;42.584;23.366;2023-02-01T03:43:55;-1.23;70.06
66594;DHT22;53450;42.584;23.366;2023-02-01T03:46:30;-1.26;70.26
66594;DHT22;53450;42.584;23.366;2023-02-01T03:49:02;-1.28;69.88
66594;DHT22;53450;42.584;23.366;2023-02-01T03:51:29;-1.19;70.13
66594;DHT22;53450;42.584;23.366;2023-02-01T03:53:55;-1.22;70.09
66594;DHT22;53450;42.584;23.366;2023-02-01T03:56:24;-1.23;69.87
66594;DHT22;53450;42.584;23.366;2023-02-01T03:58:50;-1.16;70.26
66594;DHT22;53450;42.584;23.366;2023-02-01T04:01:30;-1.19;70.03
66594;DHT22;53450;42.584;23.366;2023-02-01T04:03:57;-1.39;70.35
66594;DHT22;53450;42.584;23.366;2023-02-01T04:06:24;-1.39;70.33
66594;DHT22;53450;42.584;23.366;2023-02-01T04:08:51;-1.25;70.31
66594;DHT22;53450;42.584;23.366;2023-02-01T04:11:16;-1.30;69.45
66594;DHT22;53450;42.584;23.366;2023-02-01T04:13:42;-1.26;68.97
66594;DHT22;53450;42.584;23.366;2023-02-01T04:16:08;-1.13;68.02
66594;DHT22;53450;42.584;23.366;2023-02-01T04:18:33;-1.15;67.98
66594;DHT22;53450;42.584;23.366;2023-02-01T04:21:00;-1.09;67.95
66594;DHT22;53450;42.584;23.366;2023-02-01T04:23:27;-1.05;68.64
66594;DHT22;53450;42.584;23.366;2023-02-01T04:25:53;-0.93;68.38
66594;DHT22;53450;42.584;23.366;2023-02-01T04:28:19;-0.93;68.33
66594;DHT22;53450;42.584;23.366;2023-02-01T04:30:45;-1.12;69.75
66594;DHT22;53450;42.584;23.366;2023-02-01T04:33:11;-1.17;70.93
66594;DHT22;53450;42.584;23.366;2023-02-01T04:35:39;-1.13;71.50
66594;DHT22;53450;42.584;23.366;2023-02-01T04:38:05;-1.10;71.73
66594;DHT22;53450;42.584;23.366;2023-02-01T04:40:32;-1.01;71.57
66594;DHT22;53450;42.584;23.366;2023-02-01T04:42:58;-1.08;71.84
66594;DHT22;53450;42.584;23.366;2023-02-01T04:45:23;-0.96;72.00
66594;DHT22;53450;42.584;23.366;2023-02-01T04:48:15;-0.99;72.44
66594;DHT22;53450;42.584;23.366;2023-02-01T04:50:41;-0.99;72.95
66594;DHT22;53450;42.584;23.366;2023-02-01T04:53:06;-0.96;73.34
66594;DHT22;53450;42.584;23.366;2023-02-01T04:55:32;-0.95;73.68
66594;DHT22;53450;42.584;23.366;2023-02-01T04:57:57;-0.93;74.21
66594;DHT22;53450;42.584;23.366;2023-02-01T05:00:23;-0.93;74.74
66594;DHT22;53450;42.584;23.366;2023-02-01T05:02:48;-0.96;75.29
66594;DHT22;53450;42.584;23.366;2023-02-01T05:05:14;-0.91;75.51
66594;DHT22;53450;42.584;23.366;2023-02-01T05:07:40;-0.95;75.60
66594;DHT22;53450;42.584;23.366;2023-02-01T05:10:05;-0.89;75.37
66594;DHT22;53450;42.584;23.366;2023-02-01T05:12:31;-0.92;75.24
66594;DHT22;53450;42.584;23.366;2023-02-01T05:15:15;-0.89;75.24
66594;DHT22;53450;42.584;23.366;2023-02-01T05:17:41;-0.87;75.05
66594;DHT22;53450;42.584;23.366;2023-02-01T05:20:08;-0.82;75.12
66594;DHT22;53450;42.584;23.366;2023-02-01T05:22:33;-0.88;75.43
66594;DHT22;53450;42.584;23.366;2023-02-01T05:24:59;-0.87;75.51
66594;DHT22;53450;42.584;23.366;2023-02-01T05:27:24;-0.79;74.95
66594;DHT22;53450;42.584;23.366;2023-02-01T05:29:50;-0.79;74.85
66594;DHT22;53450;42.584;23.366;2023-02-01T05:32:15;-0.81;75.41
66594;DHT22;53450;42.584;23.366;2023-02-01T05:34:41;-0.81;75.26
66594;DHT22;53450;42.584;23.366;2023-02-01T05:37:07;-0.79;74.99
66594;DHT22;53450;42.584;23.366;2023-02-01T05:39:32;-0.74;75.01
66594;DHT22;53450;42.584;23.366;2023-02-01T05:42:23;-0.70;75.10
66594;DHT22;53450;42.584;23.366;2023-02-01T05:44:49;-0.71;74.63
66594;DHT22;53450;42.584;23.366;2023-02-01T05:47:14;-0.65;74.04
66594;DHT22;53450;42.584;23.366;2023-02-01T05:49:40;-0.58;74.23
66594;DHT22;53450;42.584;23.366;2023-02-01T05:52:06;-0.53;73.30
66594;DHT22;53450;42.584;23.366;2023-02-01T05:54:31;-0.54;72.84
66594;DHT22;53450;42.584;23.366;2023-02-01T05:56:57;-0.53;73.12
66594;DHT22;53450;42.584;23.366;2023-02-01T05:59:22;-0.47;72.42
66594;DHT22;53450;42.584;23.366;2023-02-01T06:01:48;-0.43;72.27
66594;DHT22;53450;42.584;23.366;2023-02-01T06:04:13;-0.43;71.96
66594;DHT22;53450;42.584;23.366;2023-02-01T06:06:39;-0.37;71.49
66594;DHT22;53450;42.584;23.366;2023-02-01T06:09:05;-0.36;71.21
66594;DHT22;53450;42.584;23.366;2023-02-01T06:11:31;-0.31;70.71
66594;DHT22;53450;42.584;23.366;2023-02-01T06:13:56;-0.27;70.44
66594;DHT22;53450;42.584;23.366;2023-02-01T06:16:22;-0.26;70.62
66594;DHT22;53450;42.584;23.366;2023-02-01T06:18:48;-0.17;69.64
66594;DHT22;53450;42.584;23.366;2023-02-01T06:21:14;-0.13;69.72
66594;DHT22;53450;42.584;23.366;2023-02-01T06:23:49;-0.10;69.04
66594;DHT22;53450;42.584;23.366;2023-02-01T06:26:15;-0.05;68.84
66594;DHT22;53450;42.584;23.366;2023-02-01T06:28:43;-0.06;68.48
66594;DHT22;53450;42.584;23.366;2023-02-01T06:31:09;-0.02;68.87
66594;DHT22;53450;42.584;23.366;2023-02-01T06:33:37;0.00;69.32
66594;DHT22;53450;42.584;23.366;2023-02-01T06:36:05;0.05;68.29
66594;DHT22;53450;42.584;23.366;2023-02-01T06:38:31;0.09;68.78
66594;DHT22;53450;42.584;23.366;2023-02-01T06:41:00;0.07;68.39
66594;DHT22;53450;42.584;23.366;2023-02-01T06:43:26;0.08;68.40
66594;DHT22;53450;42.584;23.366;2023-02-01T06:45:52;0.17;68.69
66594;DHT22;53450;42.584;23.366;2023-02-01T06:48:18;0.11;67.92
66594;DHT22;53450;42.584;23.366;2023-02-01T06:50:44;0.15;68.39
66594;DHT22;53450;42.584;23.366;2023-02-01T06:53:11;0.19;68.58
66594;DHT22;53450;42.584;23.366;2023-02-01T06:55:36;0.25;68.48
66594;DHT22;53450;42.584;23.366;2023-02-01T06:58:02;0.25;67.67
66594;DHT22;53450;42.584;23.366;2023-02-01T07:00:28;0.24;68.00
66594;DHT22;53450;42.584;23.366;2023-02-01T07:02:54;0.30;68.44
66594;DHT22;53450;42.584;23.366;2023-02-01T07:05:45;0.30;67.77
66594;DHT22;53450;42.584;23.366;2023-02-01T07:08:37;0.28;67.55
66594;DHT22;53450;42.584;23.366;2023-02-01T07:11:28;0.28;67.81
66594;DHT22;53450;42.584;23.366;2023-02-01T07:14:18;0.33;68.04
66594;DHT22;53450;42.584;23.366;2023-02-01T07:16:44;0.35;68.20
66594;DHT22;53450;42.584;23.366;2023-02-01T07:19:09;0.39;67.88
66594;DHT22;53450;42.584;23.366;2023-02-01T07:21:35;0.35;67.60
66594;DHT22;53450;42.584;23.366;2023-02-01T07:24:00;0.24;68.50
66594;DHT22;53450;42.584;23.366;2023-02-01T07:26:26;0.28;68.01
66594;DHT22;53450;42.584;23.366;2023-02-01T07:28:52;0.30;67.43
66594;DHT22;53450;42.584;23.366;2023-02-01T07:31:18;0.35;67.82
66594;DHT22;53450;42.584;23.366;2023-02-01T07:33:49;0.46;67.69
66594;DHT22;53450;42.584;23.366;2023-02-01T07:36:18;0.49;67.75
66594;DHT22;53450;42.584;23.366;2023-02-01T07:38:44;0.45;66.89
66594;DHT22;53450;42.584;23.366;2023-02-01T07:41:10;0.55;67.53
66594;DHT22;53450;42.584;23.366;2023-02-01T07:43:36;0.56;67.26
66594;DHT22;53450;42.584;23.366;2023-02-01T07:46:03;0.56;66.87
66594;DHT22;53450;42.584;23.366;2023-02-01T07:48:30;0.66;66.90
66594;DHT22;53450;42.584;23.366;2023-02-01T07:50:59;0.72;67.27
66594;DHT22;53450;42.584;23.366;2023-02-01T07:53:25;0.69;66.68
66594;DHT22;53450;42.584;23.366;2023-02-01T07:55:51;0.66;67.34
66594;DHT22;53450;42.584;23.366;2023-02-01T07:58:17;0.66;66.90
66594;DHT22;53450;42.584;23.366;2023-02-01T08:00:42;0.65;65.97
66594;DHT22;53450;42.584;23.366;2023-02-01T08:03:32;0.87;66.49
66594;DHT22;53450;42.584;23.366;2023-02-01T08:06:10;0.77;66.42
66594;DHT22;53450;42.584;23.366;2023-02-01T08:08:36;0.70;66.47
66594;DHT22;53450;42.584;23.366;2023-02-01T08:11:04;0.73;67.54
66594;DHT22;53450;42.584;23.366;2023-02-01T08:13:30;0.70;66.71
66594;DHT22;53450;42.584;23.366;2023-02-01T08:16:00;0.66;66.30
66594;DHT22;53450;42.584;23.366;2023-02-01T08:18:25;0.76;66.46
66594;DHT22;53450;42.584;23.366;2023-02-01T08:20:51;0.80;65.92
66594;DHT22;53450;42.584;23.366;2023-02-01T08:23:17;0.89;66.54
66594;DHT22;53450;42.584;23.366;2023-02-01T08:25:43;0.93;66.15
66594;DHT22;53450;42.584;23.366;2023-02-01T08:28:09;1.07;66.61
66594;DHT22;53450;42.584;23.366;2023-02-01T08:30:39;1.07;66.05
66594;DHT22;53450;42.584;23.366;2023-02-01T08:33:08;1.04;66.30
66594;DHT22;53450;42.584;23.366;2023-02-01T08:35:35;1.13;66.03
66594;DHT22;53450;42.584;23.366;2023-02-01T08:38:01;1.20;65.49
66594;DHT22;53450;42.584;23.366;2023-02-01T08:40:26;1.21;65.28
66594;DHT22;53450;42.584;23.366;2023-02-01T08:42:52;1.20;66.16
66594;DHT22;53450;42.584;23.366;2023-02-01T08:45:19;1.32;65.60
66594;DHT22;53450;42.584;23.366;2023-02-01T08:47:46;1.32;65.90
66594;DHT22;53450;42.584;23.366;2023-02-01T08:50:15;1.37;65.46
66594;DHT22;53450;42.584;23.366;2023-02-01T08:52:41;1.52;65.06
66594;DHT22;53450;42.584;23.366;2023-02-01T08:55:07;1.54;64.96
66594;DHT22;53450;42.584;23.366;2023-02-01T08:57:33;1.83;64.17
66594;DHT22;53450;42.584;23.366;2023-02-01T08:59:59;1.75;64.73
66594;DHT22;53450;42.584;23.366;2023-02-01T09:02:25;1.72;64.56
66594;DHT22;53450;42.584;23.366;2023-02-01T09:04:51;1.77;64.92
66594;DHT22;53450;42.584;23.366;2023-02-01T09:07:17;1.87;64.22
66594;DHT22;53450;42.584;23.366;2023-02-01T09:09:44;1.82;64.50
66594;DHT22;53450;42.584;23.366;2023-02-01T09:12:10;1.95;64.30
66594;DHT22;53450;42.584;23.366;2023-02-01T09:14:35;1.90;64.27
66594;DHT22;53450;42.584;23.366;2023-02-01T09:17:01;2.10;64.98
66594;DHT22;53450;42.584;23.366;2023-02-01T09:19:27;1.96;63.91
66594;DHT22;53450;42.584;23.366;2023-02-01T09:21:52;1.83;63.95
66594;DHT22;53450;42.584;23.366;2023-02-01T09:24:18;1.93;64.42
66594;DHT22;53450;42.584;23.366;2023-02-01T09:26:44;2.05;63.64
66594;DHT22;53450;42.584;23.366;2023-02-01T09:29:09;1.92;63.54
66594;DHT22;53450;42.584;23.366;2023-02-01T09:31:39;2.03;63.69
66594;DHT22;53450;42.584;23.366;2023-02-01T09:34:06;2.13;62.58
66594;DHT22;53450;42.584;23.366;2023-02-01T09:36:32;2.24;62.65
66594;DHT22;53450;42.584;23.366;2023-02-01T09:38:59;2.10;61.68
66594;DHT22;53450;42.584;23.366;2023-02-01T09:44:06;2.20;61.53
66594;DHT22;53450;42.584;23.366;2023-02-01T09:46:34;2.07;60.78
66594;DHT22;53450;42.584;23.366;2023-02-01T09:49:04;2.30;60.09
66594;DHT22;53450;42.584;23.366;2023-02-01T09:51:37;2.52;60.10
66594;DHT22;53450;42.584;23.366;2023-02-01T09:54:11;2.44;58.81
66594;DHT22;53450;42.584;23.366;2023-02-01T09:57:03;2.62;59.29
66594;DHT22;53450;42.584;23.366;2023-02-01T09:59:34;2.65;59.28
66594;DHT22;53450;42.584;23.366;2023-02-01T10:02:08;2.78;58.02
66594;DHT22;53450;42.584;23.366;2023-02-01T10:04:35;3.03;58.61
66594;DHT22;53450;42.584;23.366;2023-02-01T10:07:17;3.13;58.22
66594;DHT22;53450;42.584;23.366;2023-02-01T10:09:59;2.85;57.89
66594;DHT22;53450;42.584;23.366;2023-02-01T10:20:52;3.20;58.11
66594;DHT22;53450;42.584;23.366;2023-02-01T10:26:23;3.37;56.96
66594;DHT22;53450;42.584;23.366;2023-02-01T10:28:55;3.41;55.88
66594;DHT22;53450;42.584;23.366;2023-02-01T10:31:24;3.51;56.18
66594;DHT22;53450;42.584;23.366;2023-02-01T10:33:55;3.57;55.29
66594;DHT22;53450;42.584;23.366;2023-02-01T10:36:50;3.70;56.28
66594;DHT22;53450;42.584;23.366;2023-02-01T10:39:17;3.84;56.17
66594;DHT22;53450;42.584;23.366;2023-02-01T10:41:45;3.92;55.74
66594;DHT22;53450;42.584;23.366;2023-02-01T10:44:15;3.53;55.09
66594;DHT22;53450;42.584;23.366;2023-02-01T10:46:41;3.57;54.93
66594;DHT22;53450;42.584;23.366;2023-02-01T10:49:41;3.48;55.13
66594;DHT22;53450;42.584;23.366;2023-02-01T10:52:33;3.58;55.66
66594;DHT22;53450;42.584;23.366;2023-02-01T10:55:33;3.85;54.82
66594;DHT22;53450;42.584;23.366;2023-02-01T10:58:27;4.01;53.78
66594;DHT22;53450;42.584;23.366;2023-02-01T11:00:56;4.16;54.37
66594;DHT22;53450;42.584;23.366;2023-02-01T11:03:33;3.92;54.73
66594;DHT22;53450;42.584;23.366;2023-02-01T11:05:59;4.06;54.95
66594;DHT22;53450;42.584;23.366;2023-02-01T11:08:25;4.15;55.33
66594;DHT22;53450;42.584;23.366;2023-02-01T11:10:59;4.22;54.16
66594;DHT22;53450;42.584;23.366;2023-02-01T11:13:30;3.68;55.32
66594;DHT22;53450;42.584;23.366;2023-02-01T11:15:56;3.77;55.52
66594;DHT22;53450;42.584;23.366;2023-02-01T11:18:28;3.60;55.55
66594;DHT22;53450;42.584;23.366;2023-02-01T11:21:20;3.74;55.28
66594;DHT22;53450;42.584;23.366;2023-02-01T11:24:23;3.95;54.77
66594;DHT22;53450;42.584;23.366;2023-02-01T11:26:56;3.55;54.91
66594;DHT22;53450;42.584;23.366;2023-02-01T11:29:23;3.37;56.31
66594;DHT22;53450;42.584;23.366;2023-02-01T11:32:00;3.30;55.97
66594;DHT22;53450;42.584;23.366;2023-02-01T11:37:02;3.55;55.78
66594;DHT22;53450;42.584;23.366;2023-02-01T11:39:33;3.86;54.58
66594;DHT22;53450;42.584;23.366;2023-02-01T11:42:15;3.86;54.55
66594;DHT22;53450;42.584;23.366;2023-02-01T11:44:42;3.82;53.63
66594;DHT22;53450;42.584;23.366;2023-02-01T11:49:52;3.75;55.59
66594;DHT22;53450;42.584;23.366;2023-02-01T12:03:24;3.64;54.69
66594;DHT22;53450;42.584;23.366;2023-02-01T12:06:28;3.75;53.35
66594;DHT22;53450;42.584;23.366;2023-02-01T12:22:38;3.63;52.00
66594;DHT22;53450;42.584;23.366;2023-02-01T12:25:24;3.63;50.43
66594;DHT22;53450;42.584;23.366;2023-02-01T12:34:13;3.65;50.91
66594;DHT22;53450;42.584;23.366;2023-02-01T12:46:46;3.45;51.52
66594;DHT22;53450;42.584;23.366;2023-02-01T12:52:14;3.44;51.61
66594;DHT22;53450;42.584;23.366;2023-02-01T12:55:27;3.36;51.34
66594;DHT22;53450;42.584;23.366;2023-02-01T12:58:35;3.54;51.86
66594;DHT22;53450;42.584;23.366;2023-02-01T13:01:21;3.30;52.01
66594;DHT22;53450;42.584;23.366;2023-02-01T13:04:18;3.57;52.34
66594;DHT22;53450;42.584;23.366;2023-02-01T13:07:28;3.58;51.45
66594;DHT22;53450;42.584;23.366;2023-02-01T13:10:11;3.61;51.08
66594;DHT22;53450;42.584;23.366;2023-02-01T13:16:17;3.19;53.25
66594;DHT22;53450;42.584;23.366;2023-02-01T13:18:50;3.23;53.90
66594;DHT22;53450;42.584;23.366;2023-02-01T13:21:25;3.33;51.88
66594;DHT22;53450;42.584;23.366;2023-02-01T13:23:53;3.22;51.28
66594;DHT22;53450;42.584;23.366;2023-02-01T13:26:43;3.36;51.19
66594;DHT22;53450;42.584;23.366;2023-02-01T13:29:11;3.50;50.89
66594;DHT22;53450;42.584;23.366;2023-02-01T13:32:19;3.48;51.90
66594;DHT22;53450;42.584;23.366;2023-02-01T13:40:33;3.55;51.74
66594;DHT22;53450;42.584;23.366;2023-02-01T13:43:22;3.58;52.30
66594;DHT22;53450;42.584;23.366;2023-02-01T13:45:51;3.50;51.29
66594;DHT22;53450;42.584;23.366;2023-02-01T13:48:22;3.48;51.14
66594;DHT22;53450;42.584;23.366;2023-02-01T13:51:00;3.41;51.40
66594;DHT22;53450;42.584;23.366;2023-02-01T13:53:29;3.36;50.59
66594;DHT22;53450;42.584;23.366;2023-02-01T13:56:06;3.51;49.80
66594;DHT22;53450;42.584;23.366;2023-02-01T13:58:39;3.70;49.81
66594;DHT22;53450;42.584;23.366;2023-02-01T14:04:00;3.58;50.97
66594;DHT22;53450;42.584;23.366;2023-02-01T14:11:54;3.38;52.36
66594;DHT22;53450;42.584;23.366;2023-02-01T14:19:20;3.44;52.79
66594;DHT22;53450;42.584;23.366;2023-02-01T14:21:52;3.44;51.77
66594;DHT22;53450;42.584;23.366;2023-02-01T14:26:49;3.43;51.84
66594;DHT22;53450;42.584;23.366;2023-02-01T14:29:25;3.30;51.72
66594;DHT22;53450;42.584;23.366;2023-02-01T15:06:40;3.19;53.51
66594;DHT22;53450;42.584;23.366;2023-02-01T15:14:31;2.91;55.63
66594;DHT22;53450;42.584;23.366;2023-02-01T15:17:28;2.78;56.72
66594;DHT22;53450;42.584;23.366;2023-02-01T15:20:04;2.69;56.55
66594;DHT22;53450;42.584;23.366;2023-02-01T15:22:36;2.71;56.46
66594;DHT22;53450;42.584;23.366;2023-02-01T15:25:02;2.59;57.41
66594;DHT22;53450;42.584;23.366;2023-02-01T15:27:29;2.57;57.85
66594;DHT22;53450;42.584;23.366;2023-02-01T15:30:08;2.49;58.60
66594;DHT22;53450;42.584;23.366;2023-02-01T15:32:36;2.49;58.01
66594;DHT22;53450;42.584;23.366;2023-02-01T15:35:04;2.49;57.61
66594;DHT22;53450;42.584;23.366;2023-02-01T15:37:29;2.44;57.92
66594;DHT22;53450;42.584;23.366;2023-02-01T15:42:51;2.55;56.25
66594;DHT22;53450;42.584;23.366;2023-02-01T15:45:19;2.57;56.91
66594;DHT22;53450;42.584;23.366;2023-02-01T15:47:47;2.54;57.07
66594;DHT22;53450;42.584;23.366;2023-02-01T15:50:18;2.58;55.50
66594;DHT22;53450;42.584;23.366;2023-02-01T15:52:49;2.52;56.52
66594;DHT22;53450;42.584;23.366;2023-02-01T15:55:36;2.61;55.06
66594;DHT22;53450;42.584;23.366;2023-02-01T15:58:07;2.71;54.89
66594;DHT22;53450;42.584;23.366;2023-02-01T16:00:44;2.78;54.96
66594;DHT22;53450;42.584;23.366;2023-02-01T16:05:57;2.79;54.89
66594;DHT22;53450;42.584;23.366;2023-02-01T16:08:25;2.75;55.35
66594;DHT22;53450;42.584;23.366;2023-02-01T16:10:53;2.72;55.72
66594;DHT22;53450;42.584;23.366;2023-02-01T16:13:20;2.66;55.68
66594;DHT22;53450;42.584;23.366;2023-02-01T16:15:47;2.71;55.60
66594;DHT22;53450;42.584;23.366;2023-02-01T16:18:13;2.68;56.22
66594;DHT22;53450;42.584;23.366;2023-02-01T16:20:40;2.54;57.50
66594;DHT22;53450;42.584;23.366;2023-02-01T16:23:07;2.47;57.64
66594;DHT22;53450;42.584;23.366;2023-02-01T16:25:33;2.34;58.37
66594;DHT22;53450;42.584;23.366;2023-02-01T16:27:59;2.37;58.53
66594;DHT22;53450;42.584;23.366;2023-02-01T16:30:25;2.34;58.97
66594;DHT22;53450;42.584;23.366;2023-02-01T16:32:57;2.30;58.86
66594;DHT22;53450;42.584;23.366;2023-02-01T16:35:34;2.31;58.17
66594;DHT22;53450;42.584;23.366;2023-02-01T16:38:11;2.38;59.05
66594;DHT22;53450;42.584;23.366;2023-02-01T16:40:39;2.31;59.57
66594;DHT22;53450;42.584;23.366;2023-02-01T16:43:15;2.28;59.34
66594;DHT22;53450;42.584;23.366;2023-02-01T16:45:42;2.37;58.43
66594;DHT22;53450;42.584;23.366;2023-02-01T16:48:24;2.33;58.52
66594;DHT22;53450;42.584;23.366;2023-02-01T16:50:53;2.26;59.88
66594;DHT22;53450;42.584;23.366;2023-02-01T16:53:20;2.23;60.18
66594;DHT22;53450;42.584;23.366;2023-02-01T16:55:46;2.26;59.62
66594;DHT22;53450;42.584;23.366;2023-02-01T16:58:13;2.26;59.41
66594;DHT22;53450;42.584;23.366;2023-02-01T17:00:39;2.30;60.22
66594;DHT22;53450;42.584;23.366;2023-02-01T17:03:04;2.31;60.00
66594;DHT22;53450;42.584;23.366;2023-02-01T17:05:34;2.31;59.96
66594;DHT22;53450;42.584;23.366;2023-02-01T17:08:06;2.27;60.42
66594;DHT22;53450;42.584;23.366;2023-02-01T17:10:32;2.28;60.49
66594;DHT22;53450;42.584;23.366;2023-02-01T17:12:57;2.26;60.52
66594;DHT22;53450;42.584;23.366;2023-02-01T17:15:25;2.23;60.66
66594;DHT22;53450;42.584;23.366;2023-02-01T17:17:51;2.24;60.29
66594;DHT22;53450;42.584;23.366;2023-02-01T17:20:21;2.27;60.12
66594;DHT22;53450;42.584;23.366;2023-02-01T17:22:48;2.24;60.43
66594;DHT22;53450;42.584;23.366;2023-02-01T17:25:19;2.27;59.42
66594;DHT22;53450;42.584;23.366;2023-02-01T17:27:47;2.26;59.31
66594;DHT22;53450;42.584;23.366;2023-02-01T17:30:14;2.30;58.86
66594;DHT22;53450;42.584;23.366;2023-02-01T17:32:40;2.37;58.17
66594;DHT22;53450;42.584;23.366;2023-02-01T17:35:15;2.45;57.37
66594;DHT22;53450;42.584;23.366;2023-02-01T17:37:45;2.57;56.31
66594;DHT22;53450;42.584;23.366;2023-02-01T17:40:11;2.57;56.24
66594;DHT22;53450;42.584;23.366;2023-02-01T17:42:37;2.58;55.73
66594;DHT22;53450;42.584;23.366;2023-02-01T17:47:44;2.48;57.57
66594;DHT22;53450;42.584;23.366;2023-02-01T17:50:11;2.40;57.89
66594;DHT22;53450;42.584;23.366;2023-02-01T17:52:36;2.38;58.15
66594;DHT22;53450;42.584;23.366;2023-02-01T17:55:04;2.28;58.33
66594;DHT22;53450;42.584;23.366;2023-02-01T17:57:34;2.16;58.80
66594;DHT22;53450;42.584;23.366;2023-02-01T18:00:00;2.10;57.73
66594;DHT22;53450;42.584;23.366;2023-02-01T18:02:25;2.14;58.67
66594;DHT22;53450;42.584;23.366;2023-02-01T18:04:51;2.13;59.44
66594;DHT22;53450;42.584;23.366;2023-02-01T18:07:17;2.10;58.99
66594;DHT22;53450;42.584;23.366;2023-02-01T18:09:42;2.16;58.38
66594;DHT22;53450;42.584;23.366;2023-02-01T18:12:23;1.90;60.90
66594;DHT22;53450;42.584;23.366;2023-02-01T18:14:50;1.87;59.94
66594;DHT22;53450;42.584;23.366;2023-02-01T18:17:16;1.77;60.11
66594;DHT22;53450;42.584;23.366;2023-02-01T18:19:41;1.69;60.74
66594;DHT22;53450;42.584;23.366;2023-02-01T18:22:25;1.70;60.64
66594;DHT22;53450;42.584;23.366;2023-02-01T18:24:51;1.70;61.21
66594;DHT22;53450;42.584;23.366;2023-02-01T18:27:17;1.68;60.88
66594;DHT22;53450;42.584;23.366;2023-02-01T18:29:42;1.66;60.79
66594;DHT22;53450;42.584;23.366;2023-02-01T18:32:08;1.82;60.63
66594;DHT22;53450;42.584;23.366;2023-02-01T18:34:34;1.73;62.32
66594;DHT22;53450;42.584;23.366;2023-02-01T18:37:00;1.58;61.77